Terminal Aerodrome Forecast
Issued by NWS

Current Version | Previous Version | Graphics & Text | Print | Product List | Glossary On
Versions: 1 2 3 4 5 6 7 8 9 10 11 12 13 14 15 16 17 18 19 20 21
000
FTUS41 KRLX 050300 AAA
TAFCKB
TAF AMD
KCKB 050344Z 0504/0524 VRB03KT 1/2SM SN SCT001 OVC003
     FM051100 35006KT 2SM -SN BR OVC008
     FM051300 34006KT 3SM -SN BR OVC010
     FM052200 35005KT 4SM BR BKN025=

USA.gov is the U.S. government's official web portal to all federal, state and local government web resources and services.